sensor_id;sensor_type;location;lat;lon;timestamp;P1;durP1;ratioP1;P2;durP2;ratioP2
10100;SDS011;5090;51.258;4.436;2023-10-31T00:00:17;32.67;;;19.07;;
10100;SDS011;5090;51.258;4.436;2023-10-31T00:02:45;36.33;;;20.47;;
10100;SDS011;5090;51.258;4.436;2023-10-31T00:05:13;37.03;;;22.27;;
10100;SDS011;5090;51.258;4.436;2023-10-31T00:07:41;34.43;;;21.63;;
10100;SDS011;5090;51.258;4.436;2023-10-31T00:10:09;38.57;;;23.43;;
10100;SDS011;5090;51.258;4.436;2023-10-31T00:12:38;41.87;;;24.63;;
10100;SDS011;5090;51.258;4.436;2023-10-31T00:15:07;43.97;;;24.83;;
10100;SDS011;5090;51.258;4.436;2023-10-31T00:17:35;40.23;;;24.53;;
10100;SDS011;5090;51.258;4.436;2023-10-31T00:20:03;38.23;;;24.07;;
10100;SDS011;5090;51.258;4.436;2023-10-31T00:22:32;39.77;;;24.73;;
10100;SDS011;5090;51.258;4.436;2023-10-31T00:25:00;41.80;;;25.07;;
10100;SDS011;5090;51.258;4.436;2023-10-31T00:27:28;41.40;;;23.67;;
10100;SDS011;5090;51.258;4.436;2023-10-31T00:29:56;39.37;;;24.47;;
10100;SDS011;5090;51.258;4.436;2023-10-31T00:32:25;39.63;;;24.40;;
10100;SDS011;5090;51.258;4.436;2023-10-31T00:34:53;41.47;;;23.97;;
10100;SDS011;5090;51.258;4.436;2023-10-31T00:37:21;37.00;;;23.50;;
10100;SDS011;5090;51.258;4.436;2023-10-31T00:39:49;39.23;;;25.07;;
10100;SDS011;5090;51.258;4.436;2023-10-31T00:42:17;40.50;;;24.57;;
10100;SDS011;5090;51.258;4.436;2023-10-31T00:44:46;39.20;;;24.83;;
10100;SDS011;5090;51.258;4.436;2023-10-31T00:47:14;41.87;;;24.33;;
10100;SDS011;5090;51.258;4.436;2023-10-31T00:49:42;36.77;;;22.83;;
10100;SDS011;5090;51.258;4.436;2023-10-31T00:52:10;39.03;;;24.03;;
10100;SDS011;5090;51.258;4.436;2023-10-31T00:54:38;37.53;;;23.97;;
10100;SDS011;5090;51.258;4.436;2023-10-31T00:57:07;37.13;;;23.80;;
10100;SDS011;5090;51.258;4.436;2023-10-31T00:59:35;39.80;;;23.30;;
10100;SDS011;5090;51.258;4.436;2023-10-31T01:02:03;36.87;;;23.33;;
10100;SDS011;5090;51.258;4.436;2023-10-31T01:04:32;38.50;;;23.90;;
10100;SDS011;5090;51.258;4.436;2023-10-31T01:07:00;38.83;;;22.80;;
10100;SDS011;5090;51.258;4.436;2023-10-31T01:09:28;37.53;;;23.40;;
10100;SDS011;5090;51.258;4.436;2023-10-31T01:11:56;42.10;;;23.87;;
10100;SDS011;5090;51.258;4.436;2023-10-31T01:14:25;32.93;;;21.67;;
10100;SDS011;5090;51.258;4.436;2023-10-31T01:16:54;38.33;;;23.13;;
10100;SDS011;5090;51.258;4.436;2023-10-31T01:19:22;42.60;;;22.80;;
10100;SDS011;5090;51.258;4.436;2023-10-31T01:21:50;36.77;;;22.17;;
10100;SDS011;5090;51.258;4.436;2023-10-31T01:24:18;39.70;;;22.83;;
10100;SDS011;5090;51.258;4.436;2023-10-31T01:26:47;39.57;;;22.73;;
10100;SDS011;5090;51.258;4.436;2023-10-31T01:29:15;41.03;;;23.33;;
10100;SDS011;5090;51.258;4.436;2023-10-31T01:31:43;33.23;;;21.77;;
10100;SDS011;5090;51.258;4.436;2023-10-31T01:34:11;32.43;;;22.90;;
10100;SDS011;5090;51.258;4.436;2023-10-31T01:36:39;33.77;;;20.90;;
10100;SDS011;5090;51.258;4.436;2023-10-31T01:39:08;35.90;;;22.87;;
10100;SDS011;5090;51.258;4.436;2023-10-31T01:41:36;37.90;;;23.17;;
10100;SDS011;5090;51.258;4.436;2023-10-31T01:44:04;43.70;;;24.03;;
10100;SDS011;5090;51.258;4.436;2023-10-31T01:46:32;38.53;;;22.03;;
10100;SDS011;5090;51.258;4.436;2023-10-31T01:49:00;33.70;;;21.93;;
10100;SDS011;5090;51.258;4.436;2023-10-31T01:51:29;33.90;;;20.97;;
10100;SDS011;5090;51.258;4.436;2023-10-31T01:53:57;32.87;;;20.97;;
10100;SDS011;5090;51.258;4.436;2023-10-31T01:56:26;32.33;;;21.27;;
10100;SDS011;5090;51.258;4.436;2023-10-31T01:58:54;28.73;;;19.07;;
10100;SDS011;5090;51.258;4.436;2023-10-31T02:01:22;28.80;;;18.20;;
10100;SDS011;5090;51.258;4.436;2023-10-31T02:03:50;29.77;;;18.27;;
10100;SDS011;5090;51.258;4.436;2023-10-31T02:06:19;21.33;;;16.03;;
10100;SDS011;5090;51.258;4.436;2023-10-31T02:08:47;22.50;;;15.47;;
10100;SDS011;5090;51.258;4.436;2023-10-31T02:11:15;21.80;;;13.97;;
10100;SDS011;5090;51.258;4.436;2023-10-31T02:13:43;18.47;;;12.87;;
10100;SDS011;5090;51.258;4.436;2023-10-31T02:16:11;17.67;;;12.07;;
10100;SDS011;5090;51.258;4.436;2023-10-31T02:18:39;17.33;;;10.87;;
10100;SDS011;5090;51.258;4.436;2023-10-31T02:21:08;14.63;;;10.63;;
10100;SDS011;5090;51.258;4.436;2023-10-31T02:23:36;14.87;;;11.70;;
10100;SDS011;5090;51.258;4.436;2023-10-31T02:26:04;17.53;;;11.47;;
10100;SDS011;5090;51.258;4.436;2023-10-31T02:28:32;15.63;;;12.13;;
10100;SDS011;5090;51.258;4.436;2023-10-31T02:31:01;15.03;;;12.57;;
10100;SDS011;5090;51.258;4.436;2023-10-31T02:33:29;19.00;;;14.60;;
10100;SDS011;5090;51.258;4.436;2023-10-31T02:35:57;22.37;;;15.13;;
10100;SDS011;5090;51.258;4.436;2023-10-31T02:38:25;22.53;;;15.60;;
10100;SDS011;5090;51.258;4.436;2023-10-31T02:40:53;18.20;;;14.10;;
10100;SDS011;5090;51.258;4.436;2023-10-31T02:43:22;23.57;;;14.90;;
10100;SDS011;5090;51.258;4.436;2023-10-31T02:45:50;21.03;;;15.43;;
10100;SDS011;5090;51.258;4.436;2023-10-31T02:48:18;22.17;;;15.57;;
10100;SDS011;5090;51.258;4.436;2023-10-31T02:50:46;21.80;;;15.03;;
10100;SDS011;5090;51.258;4.436;2023-10-31T02:53:14;23.23;;;16.03;;
10100;SDS011;5090;51.258;4.436;2023-10-31T02:55:43;23.20;;;15.53;;
10100;SDS011;5090;51.258;4.436;2023-10-31T02:58:11;19.37;;;13.80;;
10100;SDS011;5090;51.258;4.436;2023-10-31T03:00:39;23.03;;;15.37;;
10100;SDS011;5090;51.258;4.436;2023-10-31T03:03:07;22.57;;;14.83;;
10100;SDS011;5090;51.258;4.436;2023-10-31T03:05:35;24.07;;;14.43;;
10100;SDS011;5090;51.258;4.436;2023-10-31T03:08:04;18.60;;;14.17;;
10100;SDS011;5090;51.258;4.436;2023-10-31T03:10:32;18.63;;;13.13;;
10100;SDS011;5090;51.258;4.436;2023-10-31T03:13:00;22.60;;;14.30;;
10100;SDS011;5090;51.258;4.436;2023-10-31T03:15:28;19.10;;;14.23;;
10100;SDS011;5090;51.258;4.436;2023-10-31T03:17:57;19.20;;;13.27;;
10100;SDS011;5090;51.258;4.436;2023-10-31T03:20:25;17.93;;;13.67;;
10100;SDS011;5090;51.258;4.436;2023-10-31T03:22:53;19.13;;;12.73;;
10100;SDS011;5090;51.258;4.436;2023-10-31T03:25:21;18.57;;;12.10;;
10100;SDS011;5090;51.258;4.436;2023-10-31T03:27:49;18.80;;;12.33;;
10100;SDS011;5090;51.258;4.436;2023-10-31T03:30:17;18.07;;;13.33;;
10100;SDS011;5090;51.258;4.436;2023-10-31T03:32:46;19.13;;;14.30;;
10100;SDS011;5090;51.258;4.436;2023-10-31T03:35:14;17.83;;;13.73;;
10100;SDS011;5090;51.258;4.436;2023-10-31T03:37:42;19.10;;;13.23;;
10100;SDS011;5090;51.258;4.436;2023-10-31T03:40:11;15.90;;;12.83;;
10100;SDS011;5090;51.258;4.436;2023-10-31T03:42:39;18.57;;;13.50;;
10100;SDS011;5090;51.258;4.436;2023-10-31T03:45:07;20.20;;;13.40;;
10100;SDS011;5090;51.258;4.436;2023-10-31T03:47:35;20.10;;;13.43;;
10100;SDS011;5090;51.258;4.436;2023-10-31T03:50:04;17.70;;;13.20;;
10100;SDS011;5090;51.258;4.436;2023-10-31T03:52:32;17.83;;;12.47;;
10100;SDS011;5090;51.258;4.436;2023-10-31T03:55:00;16.50;;;12.70;;
10100;SDS011;5090;51.258;4.436;2023-10-31T03:57:29;15.80;;;11.93;;
10100;SDS011;5090;51.258;4.436;2023-10-31T03:59:57;19.70;;;12.23;;
10100;SDS011;5090;51.258;4.436;2023-10-31T04:02:25;16.60;;;12.50;;
10100;SDS011;5090;51.258;4.436;2023-10-31T04:04:53;15.97;;;12.30;;
10100;SDS011;5090;51.258;4.436;2023-10-31T04:07:21;15.80;;;11.90;;
10100;SDS011;5090;51.258;4.436;2023-10-31T04:09:50;14.17;;;10.33;;
10100;SDS011;5090;51.258;4.436;2023-10-31T04:12:18;12.13;;;9.63;;
10100;SDS011;5090;51.258;4.436;2023-10-31T04:14:46;13.50;;;9.97;;
10100;SDS011;5090;51.258;4.436;2023-10-31T04:17:16;10.37;;;8.53;;
10100;SDS011;5090;51.258;4.436;2023-10-31T04:19:44;13.30;;;8.37;;
10100;SDS011;5090;51.258;4.436;2023-10-31T04:22:12;10.73;;;8.20;;
10100;SDS011;5090;51.258;4.436;2023-10-31T04:24:40;10.50;;;7.23;;
10100;SDS011;5090;51.258;4.436;2023-10-31T04:27:09;10.63;;;6.67;;
10100;SDS011;5090;51.258;4.436;2023-10-31T04:29:37;11.00;;;7.27;;
10100;SDS011;5090;51.258;4.436;2023-10-31T04:32:05;8.90;;;6.40;;
10100;SDS011;5090;51.258;4.436;2023-10-31T04:34:33;8.67;;;6.37;;
10100;SDS011;5090;51.258;4.436;2023-10-31T04:37:02;8.47;;;6.23;;
10100;SDS011;5090;51.258;4.436;2023-10-31T04:39:30;7.73;;;6.00;;
10100;SDS011;5090;51.258;4.436;2023-10-31T04:41:58;6.40;;;5.77;;
10100;SDS011;5090;51.258;4.436;2023-10-31T04:44:26;9.17;;;5.77;;
10100;SDS011;5090;51.258;4.436;2023-10-31T04:46:54;11.50;;;6.43;;
10100;SDS011;5090;51.258;4.436;2023-10-31T04:49:23;6.80;;;5.70;;
10100;SDS011;5090;51.258;4.436;2023-10-31T04:51:51;8.33;;;5.60;;
10100;SDS011;5090;51.258;4.436;2023-10-31T04:54:19;9.73;;;6.43;;
10100;SDS011;5090;51.258;4.436;2023-10-31T04:56:47;7.67;;;5.23;;
10100;SDS011;5090;51.258;4.436;2023-10-31T04:59:19;6.70;;;5.53;;
10100;SDS011;5090;51.258;4.436;2023-10-31T05:01:48;6.90;;;5.30;;
10100;SDS011;5090;51.258;4.436;2023-10-31T05:04:16;8.17;;;5.67;;
10100;SDS011;5090;51.258;4.436;2023-10-31T05:06:44;6.10;;;4.80;;
10100;SDS011;5090;51.258;4.436;2023-10-31T05:09:13;7.83;;;5.13;;
10100;SDS011;5090;51.258;4.436;2023-10-31T05:11:40;8.43;;;5.60;;
10100;SDS011;5090;51.258;4.436;2023-10-31T05:14:09;10.97;;;5.67;;
10100;SDS011;5090;51.258;4.436;2023-10-31T05:16:41;10.30;;;6.23;;
10100;SDS011;5090;51.258;4.436;2023-10-31T05:19:08;10.63;;;5.80;;
10100;SDS011;5090;51.258;4.436;2023-10-31T05:21:36;8.13;;;5.70;;
10100;SDS011;5090;51.258;4.436;2023-10-31T05:24:05;7.10;;;5.23;;
10100;SDS011;5090;51.258;4.436;2023-10-31T05:26:33;8.93;;;6.03;;
10100;SDS011;5090;51.258;4.436;2023-10-31T05:29:01;7.47;;;5.53;;
10100;SDS011;5090;51.258;4.436;2023-10-31T05:31:30;9.57;;;7.10;;
10100;SDS011;5090;51.258;4.436;2023-10-31T05:33:58;13.60;;;7.13;;
10100;SDS011;5090;51.258;4.436;2023-10-31T05:36:26;9.10;;;7.03;;
10100;SDS011;5090;51.258;4.436;2023-10-31T05:38:54;9.97;;;7.30;;
10100;SDS011;5090;51.258;4.436;2023-10-31T05:41:23;9.00;;;6.90;;
10100;SDS011;5090;51.258;4.436;2023-10-31T05:43:51;11.27;;;7.13;;
10100;SDS011;5090;51.258;4.436;2023-10-31T05:46:19;8.03;;;6.70;;
10100;SDS011;5090;51.258;4.436;2023-10-31T05:48:47;10.33;;;7.50;;
10100;SDS011;5090;51.258;4.436;2023-10-31T05:51:16;11.53;;;7.20;;
10100;SDS011;5090;51.258;4.436;2023-10-31T05:53:45;9.83;;;6.77;;
10100;SDS011;5090;51.258;4.436;2023-10-31T05:56:12;12.73;;;7.00;;
10100;SDS011;5090;51.258;4.436;2023-10-31T05:58:40;11.17;;;7.10;;
10100;SDS011;5090;51.258;4.436;2023-10-31T06:01:08;10.23;;;7.27;;
10100;SDS011;5090;51.258;4.436;2023-10-31T06:03:37;8.77;;;6.73;;
10100;SDS011;5090;51.258;4.436;2023-10-31T06:06:06;9.47;;;7.40;;
10100;SDS011;5090;51.258;4.436;2023-10-31T06:08:34;10.23;;;7.07;;
10100;SDS011;5090;51.258;4.436;2023-10-31T06:11:02;11.20;;;6.57;;
10100;SDS011;5090;51.258;4.436;2023-10-31T06:13:30;10.33;;;7.27;;
10100;SDS011;5090;51.258;4.436;2023-10-31T06:16:00;11.00;;;6.77;;
10100;SDS011;5090;51.258;4.436;2023-10-31T06:18:27;9.53;;;6.50;;
10100;SDS011;5090;51.258;4.436;2023-10-31T06:20:55;11.70;;;7.30;;
10100;SDS011;5090;51.258;4.436;2023-10-31T06:23:23;10.67;;;7.20;;
10100;SDS011;5090;51.258;4.436;2023-10-31T06:25:51;11.80;;;8.63;;
10100;SDS011;5090;51.258;4.436;2023-10-31T06:28:20;12.30;;;10.40;;
10100;SDS011;5090;51.258;4.436;2023-10-31T06:30:48;13.13;;;9.87;;
10100;SDS011;5090;51.258;4.436;2023-10-31T06:33:16;16.63;;;10.90;;
10100;SDS011;5090;51.258;4.436;2023-10-31T06:35:44;16.77;;;11.10;;
10100;SDS011;5090;51.258;4.436;2023-10-31T06:38:12;15.53;;;10.90;;
10100;SDS011;5090;51.258;4.436;2023-10-31T06:40:41;13.17;;;10.53;;
10100;SDS011;5090;51.258;4.436;2023-10-31T06:43:09;17.33;;;10.77;;
10100;SDS011;5090;51.258;4.436;2023-10-31T06:45:37;19.07;;;14.70;;
10100;SDS011;5090;51.258;4.436;2023-10-31T06:48:05;24.87;;;16.67;;
10100;SDS011;5090;51.258;4.436;2023-10-31T06:50:33;30.10;;;19.87;;
10100;SDS011;5090;51.258;4.436;2023-10-31T06:53:02;31.00;;;20.67;;
10100;SDS011;5090;51.258;4.436;2023-10-31T06:55:31;32.87;;;20.50;;
10100;SDS011;5090;51.258;4.436;2023-10-31T06:57:59;38.23;;;22.47;;
10100;SDS011;5090;51.258;4.436;2023-10-31T07:00:27;32.90;;;20.67;;
10100;SDS011;5090;51.258;4.436;2023-10-31T07:02:55;35.33;;;21.70;;
10100;SDS011;5090;51.258;4.436;2023-10-31T07:05:23;31.33;;;19.93;;
10100;SDS011;5090;51.258;4.436;2023-10-31T07:07:52;37.57;;;22.07;;
10100;SDS011;5090;51.258;4.436;2023-10-31T07:10:20;32.23;;;21.33;;
10100;SDS011;5090;51.258;4.436;2023-10-31T07:12:48;34.03;;;22.23;;
10100;SDS011;5090;51.258;4.436;2023-10-31T07:15:16;36.93;;;22.53;;
10100;SDS011;5090;51.258;4.436;2023-10-31T07:17:44;37.47;;;23.97;;
10100;SDS011;5090;51.258;4.436;2023-10-31T07:20:13;37.07;;;24.07;;
10100;SDS011;5090;51.258;4.436;2023-10-31T07:22:41;38.03;;;23.73;;
10100;SDS011;5090;51.258;4.436;2023-10-31T07:25:09;32.43;;;21.40;;
10100;SDS011;5090;51.258;4.436;2023-10-31T07:27:38;33.83;;;21.37;;
10100;SDS011;5090;51.258;4.436;2023-10-31T07:30:06;33.67;;;21.13;;
10100;SDS011;5090;51.258;4.436;2023-10-31T07:32:34;30.43;;;19.83;;
10100;SDS011;5090;51.258;4.436;2023-10-31T07:35:03;32.70;;;20.77;;
10100;SDS011;5090;51.258;4.436;2023-10-31T07:37:31;31.80;;;20.87;;
10100;SDS011;5090;51.258;4.436;2023-10-31T07:39:59;33.40;;;21.90;;
10100;SDS011;5090;51.258;4.436;2023-10-31T07:42:27;37.40;;;23.57;;
10100;SDS011;5090;51.258;4.436;2023-10-31T07:44:55;37.53;;;23.40;;
10100;SDS011;5090;51.258;4.436;2023-10-31T07:47:24;38.07;;;23.97;;
10100;SDS011;5090;51.258;4.436;2023-10-31T07:49:52;36.03;;;22.70;;
10100;SDS011;5090;51.258;4.436;2023-10-31T07:52:20;42.63;;;26.07;;
10100;SDS011;5090;51.258;4.436;2023-10-31T07:54:48;41.37;;;26.23;;
10100;SDS011;5090;51.258;4.436;2023-10-31T07:57:17;43.30;;;25.30;;
10100;SDS011;5090;51.258;4.436;2023-10-31T07:59:45;44.70;;;24.73;;
10100;SDS011;5090;51.258;4.436;2023-10-31T08:02:13;36.73;;;23.03;;
10100;SDS011;5090;51.258;4.436;2023-10-31T08:04:41;38.40;;;23.63;;
10100;SDS011;5090;51.258;4.436;2023-10-31T08:07:09;34.13;;;22.77;;
10100;SDS011;5090;51.258;4.436;2023-10-31T08:09:38;35.03;;;21.20;;
10100;SDS011;5090;51.258;4.436;2023-10-31T08:12:06;35.40;;;22.20;;
10100;SDS011;5090;51.258;4.436;2023-10-31T08:14:34;33.40;;;20.73;;
10100;SDS011;5090;51.258;4.436;2023-10-31T08:17:03;29.40;;;19.97;;
10100;SDS011;5090;51.258;4.436;2023-10-31T08:19:31;31.40;;;20.03;;
10100;SDS011;5090;51.258;4.436;2023-10-31T08:21:59;28.80;;;19.00;;
10100;SDS011;5090;51.258;4.436;2023-10-31T08:24:27;28.07;;;19.20;;
10100;SDS011;5090;51.258;4.436;2023-10-31T08:26:55;27.97;;;19.43;;
10100;SDS011;5090;51.258;4.436;2023-10-31T08:29:24;30.33;;;20.53;;
10100;SDS011;5090;51.258;4.436;2023-10-31T08:31:52;30.07;;;20.57;;
10100;SDS011;5090;51.258;4.436;2023-10-31T08:34:20;32.97;;;20.50;;
10100;SDS011;5090;51.258;4.436;2023-10-31T08:36:49;33.97;;;21.07;;
10100;SDS011;5090;51.258;4.436;2023-10-31T08:39:18;30.83;;;19.57;;
10100;SDS011;5090;51.258;4.436;2023-10-31T08:41:50;26.60;;;16.60;;
10100;SDS011;5090;51.258;4.436;2023-10-31T08:44:17;27.23;;;16.33;;
10100;SDS011;5090;51.258;4.436;2023-10-31T08:46:45;22.50;;;15.60;;
10100;SDS011;5090;51.258;4.436;2023-10-31T08:49:16;25.90;;;16.43;;
10100;SDS011;5090;51.258;4.436;2023-10-31T08:51:44;23.90;;;15.13;;
10100;SDS011;5090;51.258;4.436;2023-10-31T08:54:12;23.70;;;15.80;;
10100;SDS011;5090;51.258;4.436;2023-10-31T08:56:45;26.13;;;16.23;;
10100;SDS011;5090;51.258;4.436;2023-10-31T08:59:13;26.43;;;16.83;;
10100;SDS011;5090;51.258;4.436;2023-10-31T09:01:41;24.50;;;16.17;;
10100;SDS011;5090;51.258;4.436;2023-10-31T09:04:10;23.77;;;15.40;;
10100;SDS011;5090;51.258;4.436;2023-10-31T09:06:38;21.87;;;14.30;;
10100;SDS011;5090;51.258;4.436;2023-10-31T09:09:06;20.77;;;14.77;;
10100;SDS011;5090;51.258;4.436;2023-10-31T09:11:34;23.27;;;15.60;;
10100;SDS011;5090;51.258;4.436;2023-10-31T09:14:03;18.97;;;15.13;;
10100;SDS011;5090;51.258;4.436;2023-10-31T09:16:32;24.53;;;16.50;;
10100;SDS011;5090;51.258;4.436;2023-10-31T09:19:00;24.03;;;15.93;;
10100;SDS011;5090;51.258;4.436;2023-10-31T09:21:28;25.50;;;16.93;;
10100;SDS011;5090;51.258;4.436;2023-10-31T09:23:57;27.63;;;17.17;;
10100;SDS011;5090;51.258;4.436;2023-10-31T09:26:25;28.67;;;18.87;;
10100;SDS011;5090;51.258;4.436;2023-10-31T09:28:53;28.80;;;19.23;;
10100;SDS011;5090;51.258;4.436;2023-10-31T09:31:22;31.13;;;18.90;;
10100;SDS011;5090;51.258;4.436;2023-10-31T09:33:51;33.30;;;19.10;;
10100;SDS011;5090;51.258;4.436;2023-10-31T09:36:19;27.43;;;18.30;;
10100;SDS011;5090;51.258;4.436;2023-10-31T09:38:47;23.47;;;16.63;;
10100;SDS011;5090;51.258;4.436;2023-10-31T09:41:15;25.90;;;17.90;;
10100;SDS011;5090;51.258;4.436;2023-10-31T09:43:43;23.73;;;16.97;;
10100;SDS011;5090;51.258;4.436;2023-10-31T09:46:12;23.70;;;17.27;;
10100;SDS011;5090;51.258;4.436;2023-10-31T09:48:40;24.00;;;15.70;;
10100;SDS011;5090;51.258;4.436;2023-10-31T09:51:08;22.57;;;16.27;;
10100;SDS011;5090;51.258;4.436;2023-10-31T09:53:37;24.20;;;16.37;;
10100;SDS011;5090;51.258;4.436;2023-10-31T09:56:05;32.83;;;22.57;;
10100;SDS011;5090;51.258;4.436;2023-10-31T09:58:34;32.47;;;22.77;;
10100;SDS011;5090;51.258;4.436;2023-10-31T10:01:02;33.40;;;23.63;;
10100;SDS011;5090;51.258;4.436;2023-10-31T10:03:30;37.53;;;24.70;;
10100;SDS011;5090;51.258;4.436;2023-10-31T10:05:58;30.47;;;21.80;;
10100;SDS011;5090;51.258;4.436;2023-10-31T10:08:27;28.93;;;22.40;;
10100;SDS011;5090;51.258;4.436;2023-10-31T10:10:55;28.20;;;22.23;;
10100;SDS011;5090;51.258;4.436;2023-10-31T10:13:23;31.27;;;23.77;;
10100;SDS011;5090;51.258;4.436;2023-10-31T10:15:51;28.57;;;20.90;;
10100;SDS011;5090;51.258;4.436;2023-10-31T10:18:24;31.03;;;22.73;;
10100;SDS011;5090;51.258;4.436;2023-10-31T10:20:54;34.50;;;25.23;;
10100;SDS011;5090;51.258;4.436;2023-10-31T10:23:22;33.00;;;23.17;;
10100;SDS011;5090;51.258;4.436;2023-10-31T10:25:50;29.97;;;20.47;;
10100;SDS011;5090;51.258;4.436;2023-10-31T10:28:19;21.80;;;16.40;;
10100;SDS011;5090;51.258;4.436;2023-10-31T10:30:49;21.23;;;14.00;;
10100;SDS011;5090;51.258;4.436;2023-10-31T10:33:17;18.53;;;14.33;;
10100;SDS011;5090;51.258;4.436;2023-10-31T10:35:46;20.30;;;13.37;;
10100;SDS011;5090;51.258;4.436;2023-10-31T10:38:16;18.53;;;12.87;;
10100;SDS011;5090;51.258;4.436;2023-10-31T10:40:46;13.33;;;10.43;;
10100;SDS011;5090;51.258;4.436;2023-10-31T10:43:23;13.90;;;10.47;;
10100;SDS011;5090;51.258;4.436;2023-10-31T10:45:56;13.27;;;9.97;;
10100;SDS011;5090;51.258;4.436;2023-10-31T10:48:28;12.83;;;10.60;;
10100;SDS011;5090;51.258;4.436;2023-10-31T10:50:59;11.90;;;9.87;;
10100;SDS011;5090;51.258;4.436;2023-10-31T10:53:29;14.53;;;10.30;;
10100;SDS011;5090;51.258;4.436;2023-10-31T10:55:55;15.07;;;10.13;;
10100;SDS011;5090;51.258;4.436;2023-10-31T10:58:26;13.13;;;9.93;;
10100;SDS011;5090;51.258;4.436;2023-10-31T11:00:53;14.97;;;10.73;;
10100;SDS011;5090;51.258;4.436;2023-10-31T11:03:22;10.73;;;9.67;;
10100;SDS011;5090;51.258;4.436;2023-10-31T11:05:50;11.40;;;8.20;;
10100;SDS011;5090;51.258;4.436;2023-10-31T11:08:20;9.47;;;7.43;;
10100;SDS011;5090;51.258;4.436;2023-10-31T11:10:47;9.97;;;7.83;;
10100;SDS011;5090;51.258;4.436;2023-10-31T11:13:15;11.87;;;6.90;;
10100;SDS011;5090;51.258;4.436;2023-10-31T11:15:44;9.40;;;6.23;;
10100;SDS011;5090;51.258;4.436;2023-10-31T11:18:13;8.17;;;6.40;;
10100;SDS011;5090;51.258;4.436;2023-10-31T11:20:41;9.70;;;6.60;;
10100;SDS011;5090;51.258;4.436;2023-10-31T11:23:09;8.17;;;6.10;;
10100;SDS011;5090;51.258;4.436;2023-10-31T11:25:42;8.37;;;6.07;;
10100;SDS011;5090;51.258;4.436;2023-10-31T11:28:13;8.87;;;6.13;;
10100;SDS011;5090;51.258;4.436;2023-10-31T11:30:41;11.53;;;6.27;;
10100;SDS011;5090;51.258;4.436;2023-10-31T11:33:13;10.90;;;5.90;;
10100;SDS011;5090;51.258;4.436;2023-10-31T11:35:41;9.00;;;6.03;;
10100;SDS011;5090;51.258;4.436;2023-10-31T11:38:10;9.10;;;5.40;;
10100;SDS011;5090;51.258;4.436;2023-10-31T11:40:58;8.77;;;5.50;;
10100;SDS011;5090;51.258;4.436;2023-10-31T11:43:07;13.43;;;5.03;;
10100;SDS011;5090;51.258;4.436;2023-10-31T11:45:40;10.60;;;5.40;;
10100;SDS011;5090;51.258;4.436;2023-10-31T11:48:05;12.37;;;5.47;;
10100;SDS011;5090;51.258;4.436;2023-10-31T11:50:33;9.03;;;4.83;;
10100;SDS011;5090;51.258;4.436;2023-10-31T11:53:03;7.50;;;5.20;;
10100;SDS011;5090;51.258;4.436;2023-10-31T11:55:30;6.27;;;4.57;;
10100;SDS011;5090;51.258;4.436;2023-10-31T11:57:58;9.60;;;4.73;;
10100;SDS011;5090;51.258;4.436;2023-10-31T12:00:27;10.80;;;5.07;;
10100;SDS011;5090;51.258;4.436;2023-10-31T12:03:00;7.07;;;4.90;;
10100;SDS011;5090;51.258;4.436;2023-10-31T12:05:28;10.73;;;5.33;;
10100;SDS011;5090;51.258;4.436;2023-10-31T12:07:57;8.90;;;4.60;;
10100;SDS011;5090;51.258;4.436;2023-10-31T12:10:28;14.63;;;4.97;;
10100;SDS011;5090;51.258;4.436;2023-10-31T12:12:55;8.47;;;4.80;;
10100;SDS011;5090;51.258;4.436;2023-10-31T12:15:25;7.80;;;4.17;;
10100;SDS011;5090;51.258;4.436;2023-10-31T12:17:57;9.00;;;4.83;;
10100;SDS011;5090;51.258;4.436;2023-10-31T12:20:26;13.63;;;4.83;;
10100;SDS011;5090;51.258;4.436;2023-10-31T12:23:01;15.07;;;5.17;;
10100;SDS011;5090;51.258;4.436;2023-10-31T12:25:29;9.00;;;4.50;;
10100;SDS011;5090;51.258;4.436;2023-10-31T12:27:58;9.40;;;5.90;;
10100;SDS011;5090;51.258;4.436;2023-10-31T12:30:26;11.63;;;5.73;;
10100;SDS011;5090;51.258;4.436;2023-10-31T12:32:55;10.17;;;6.33;;
10100;SDS011;5090;51.258;4.436;2023-10-31T12:35:23;10.30;;;5.07;;
10100;SDS011;5090;51.258;4.436;2023-10-31T12:37:51;7.80;;;5.67;;
10100;SDS011;5090;51.258;4.436;2023-10-31T12:40:21;10.30;;;7.60;;
10100;SDS011;5090;51.258;4.436;2023-10-31T12:42:54;11.77;;;7.30;;
10100;SDS011;5090;51.258;4.436;2023-10-31T12:45:24;14.87;;;7.40;;
10100;SDS011;5090;51.258;4.436;2023-10-31T12:50:28;12.53;;;7.97;;
10100;SDS011;5090;51.258;4.436;2023-10-31T12:52:57;11.13;;;7.17;;
10100;SDS011;5090;51.258;4.436;2023-10-31T12:55:27;10.93;;;6.40;;
10100;SDS011;5090;51.258;4.436;2023-10-31T12:57:57;13.10;;;6.60;;
10100;SDS011;5090;51.258;4.436;2023-10-31T13:00:31;8.47;;;5.47;;
10100;SDS011;5090;51.258;4.436;2023-10-31T13:02:59;10.40;;;5.90;;
10100;SDS011;5090;51.258;4.436;2023-10-31T13:05:27;10.43;;;6.20;;
10100;SDS011;5090;51.258;4.436;2023-10-31T13:07:57;11.23;;;6.13;;
10100;SDS011;5090;51.258;4.436;2023-10-31T13:10:26;9.07;;;5.80;;
10100;SDS011;5090;51.258;4.436;2023-10-31T13:12:55;9.17;;;5.53;;
10100;SDS011;5090;51.258;4.436;2023-10-31T13:15:23;10.17;;;5.87;;
10100;SDS011;5090;51.258;4.436;2023-10-31T13:17:51;9.63;;;6.30;;
10100;SDS011;5090;51.258;4.436;2023-10-31T13:20:20;10.07;;;6.40;;
10100;SDS011;5090;51.258;4.436;2023-10-31T13:22:48;7.80;;;6.30;;
10100;SDS011;5090;51.258;4.436;2023-10-31T13:25:16;9.10;;;6.30;;
10100;SDS011;5090;51.258;4.436;2023-10-31T13:27:44;8.57;;;6.57;;
10100;SDS011;5090;51.258;4.436;2023-10-31T13:30:13;8.47;;;6.57;;
10100;SDS011;5090;51.258;4.436;2023-10-31T13:32:42;9.50;;;6.80;;
10100;SDS011;5090;51.258;4.436;2023-10-31T13:35:10;12.60;;;7.50;;
10100;SDS011;5090;51.258;4.436;2023-10-31T13:37:38;11.40;;;6.20;;
10100;SDS011;5090;51.258;4.436;2023-10-31T13:40:11;9.27;;;6.73;;
10100;SDS011;5090;51.258;4.436;2023-10-31T13:42:39;9.37;;;5.77;;
10100;SDS011;5090;51.258;4.436;2023-10-31T13:45:08;12.37;;;6.60;;
10100;SDS011;5090;51.258;4.436;2023-10-31T13:47:36;10.63;;;7.00;;
10100;SDS011;5090;51.258;4.436;2023-10-31T13:50:05;11.40;;;6.20;;
10100;SDS011;5090;51.258;4.436;2023-10-31T13:52:34;10.40;;;6.50;;
10100;SDS011;5090;51.258;4.436;2023-10-31T13:55:02;7.57;;;5.70;;
10100;SDS011;5090;51.258;4.436;2023-10-31T13:57:30;11.10;;;6.30;;
10100;SDS011;5090;51.258;4.436;2023-10-31T13:59:58;10.20;;;6.23;;
10100;SDS011;5090;51.258;4.436;2023-10-31T14:02:27;7.90;;;5.90;;
10100;SDS011;5090;51.258;4.436;2023-10-31T14:04:55;9.00;;;6.97;;
10100;SDS011;5090;51.258;4.436;2023-10-31T14:07:24;11.53;;;6.70;;
10100;SDS011;5090;51.258;4.436;2023-10-31T14:09:53;8.97;;;6.77;;
10100;SDS011;5090;51.258;4.436;2023-10-31T14:12:21;10.37;;;6.77;;
10100;SDS011;5090;51.258;4.436;2023-10-31T14:14:50;10.83;;;6.90;;
10100;SDS011;5090;51.258;4.436;2023-10-31T14:17:17;9.50;;;6.70;;
10100;SDS011;5090;51.258;4.436;2023-10-31T14:19:46;10.30;;;6.63;;
10100;SDS011;5090;51.258;4.436;2023-10-31T14:22:14;12.97;;;6.83;;
10100;SDS011;5090;51.258;4.436;2023-10-31T14:24:42;9.13;;;6.70;;
10100;SDS011;5090;51.258;4.436;2023-10-31T14:27:10;10.63;;;6.90;;
10100;SDS011;5090;51.258;4.436;2023-10-31T14:29:39;11.97;;;6.67;;
10100;SDS011;5090;51.258;4.436;2023-10-31T14:32:07;10.23;;;5.90;;
10100;SDS011;5090;51.258;4.436;2023-10-31T14:34:35;8.90;;;6.63;;
10100;SDS011;5090;51.258;4.436;2023-10-31T14:37:04;10.60;;;5.70;;
10100;SDS011;5090;51.258;4.436;2023-10-31T14:39:33;7.03;;;5.37;;
10100;SDS011;5090;51.258;4.436;2023-10-31T14:42:01;6.37;;;4.77;;
10100;SDS011;5090;51.258;4.436;2023-10-31T14:44:30;5.97;;;4.93;;
10100;SDS011;5090;51.258;4.436;2023-10-31T14:46:59;9.10;;;5.23;;
10100;SDS011;5090;51.258;4.436;2023-10-31T14:49:27;6.43;;;4.23;;
10100;SDS011;5090;51.258;4.436;2023-10-31T14:51:55;7.33;;;4.10;;